This is the latest recevied weather packets stored in our database for station/object OM4MO-10. If no packets are shown the sender has not sent any weather packets the latest 10 day(s).
| Time | Temp. | Humidity | Pressure | Rain* | Wind** | Luminosity | Snow |
|---|---|---|---|---|---|---|---|
| 1777893085 | 22.78° C | 26% | 1038.3 hPa | - | - | - | - |
| 1777891884 | 22.22° C | 26% | 1037.6 hPa | - | - | - | - |
| 1777890685 | 21.67° C | 26% | 1038 hPa | - | - | - | - |
| 1777889484 | 21.11° C | 29% | 1036.6 hPa | - | - | - | - |
| 1777888284 | 20.56° C | 30% | 1036.6 hPa | - | - | - | - |
| 1777887084 | 20° C | 31% | 1035.2 hPa | - | - | - | - |
| 1777885884 | 19.44° C | 32% | 1034.4 hPa | - | - | - | - |
| 1777884684 | 19.44° C | 37% | 1030.8 hPa | - | - | - | - |
| 1777883484 | 18.89° C | 41% | 1029.2 hPa | - | - | - | - |
| 1777882284 | 18.89° C | 38% | 1029.4 hPa | - | - | - | - |
| 1777881083 | 18.33° C | 43% | 1027.5 hPa | - | - | - | - |
| 1777879883 | 17.22° C | 50% | 1025 hPa | - | - | - | - |
| 1777878683 | 16.67° C | 48% | 1027 hPa | - | - | - | - |
| 1777877483 | 15.56° C | 52% | 1024.4 hPa | - | - | - | - |
| 1777876283 | 14.44° C | 70% | 1021.2 hPa | - | - | - | - |
| 1777875083 | 13.33° C | 88% | 1019.9 hPa | - | - | - | - |
| 1777873887 | 12.22° C | 95% | 1020 hPa | - | - | - | - |
| 1777872683 | 11.67° C | 99% | 1020 hPa | - | - | - | - |
| 1777871482 | 10.56° C | 100% | 1019.9 hPa | - | - | - | - |
| 1777870282 | 8.89° C | 100% | 1020 hPa | - | - | - | - |
| 1777869082 | 8.33° C | 100% | 1020 hPa | - | - | - | - |
| 1777867882 | 6.67° C | 100% | 1019.9 hPa | - | - | - | - |
| 1777866682 | 7.22° C | 100% | 1019.6 hPa | - | - | - | - |
| 1777865482 | 5.56° C | 100% | 1019.8 hPa | - | - | - | - |
| 1777864282 | 3.89° C | 100% | 1019.9 hPa | - | - | - | - |
* Rain since midnight (hover to see other rain measurements)
** Current wind speed in m/s (hover to see current wind gust speed)